Time;durP1;ratioP1;P1;durP2;ratioP2;P2;SDS_P1;SDS_P2;PMS_P1;PMS_P2;Temp;Humidity;BMP_temperature;BMP_pressure;BME280_temperature;BME280_humidity;BME280_pressure;Samples;Min_cycle;Max_cycle;Signal;HPM_P1;HPM_P2
2022/03/31 00:01:39;;;;;;;;;;;;;;;;;;5017206;28;19967;-72
2022/03/31 00:04:05;;;;;;;;;;;;;;;;;;5012638;28;19917;-72
2022/03/31 00:06:31;;;;;;;;;;;;;;;;;;5016141;28;19917;-72
2022/03/31 00:08:57;;;;;;;;;;;;;;;;;;5011613;28;19925;-72
2022/03/31 00:11:23;;;;;;;;;;;;;;;;;;4999820;28;19971;-72
2022/03/31 00:13:49;;;;;;;;;;;;;;;;;;5016278;28;20882;-72
2022/03/31 00:16:15;;;;;;;;;;;;;;;;;;5014809;28;19923;-72
2022/03/31 00:18:41;;;;;;;;;;;;;;;;;;5020969;28;20835;-71
2022/03/31 00:21:07;;;;;;;;;;;;;;;;;;5009478;28;20015;-72
2022/03/31 00:23:36;;;;;;;;;;;;;;;;;;5000073;28;20366;-72
2022/03/31 00:26:02;;;;;;;;;;;;;;;;;;5014117;28;20249;-72
2022/03/31 00:28:28;;;;;;;;;;;;;;;;;;5016780;28;20602;-72
2022/03/31 00:30:54;;;;;;;;;;;;;;;;;;5011811;28;19992;-72
2022/03/31 00:33:20;;;;;;;;;;;;;;;;;;5014861;28;20334;-72
2022/03/31 00:41:16;;;;;;;;;;;;;;;;;;5011212;28;19990;-72
2022/03/31 00:43:42;;;;;;;;;;;;;;;;;;5017811;28;19968;-71
2022/03/31 00:46:08;;;;;;;;;;;;;;;;;;4989461;28;20683;-71
2022/03/31 00:48:34;;;;;;;;;;;;;;;;;;4975242;28;19929;-71
2022/03/31 00:51:00;;;;;;;;;;;;;;;;;;5020463;28;19921;-71
2022/03/31 00:53:26;;;;;;;;;;;;;;;;;;5007202;28;20414;-73
2022/03/31 00:55:52;;;;;;;;;;;;;;;;;;5010464;28;19920;-73
2022/03/31 00:58:18;;;;;;;;;;;;;;;;;;5006527;28;20023;-73
2022/03/31 01:00:44;;;;;;;;;;;;;;;;;;5027252;28;19916;-73
2022/03/31 01:03:10;;;;;;;;;;;;;;;;;;5015439;28;19925;-73
2022/03/31 01:05:39;;;;;;;;;;;;;;;;;;5023096;28;19990;-72
2022/03/31 01:08:05;;;;;;;;;;;;;;;;;;5018425;28;19960;-73
2022/03/31 01:10:31;;;;;;;;;;;;;;;;;;5012186;28;20267;-73
2022/03/31 01:12:57;;;;;;;;;;;;;;;;;;4991879;28;19924;-73
2022/03/31 01:15:25;;;;;;;;;;;;;;;;;;5022882;28;20206;-73
2022/03/31 01:17:51;;;;;;;;;;;;;;;;;;5018251;28;19998;-72
2022/03/31 01:20:19;;;;;;;;;;;;;;;;;;5019267;28;19921;-73
2022/03/31 01:22:45;;;;;;;;;;;;;;;;;;4999132;28;19967;-73
2022/03/31 01:25:11;;;;;;;;;;;;;;;;;;4972491;28;19962;-73
2022/03/31 01:27:38;;;;;;;;;;;;;;;;;;4975010;28;20448;-73
2022/03/31 01:30:04;;;;;;;;;;;;;;;;;;4973532;28;19917;-73
2022/03/31 01:32:30;;;;;;;;;;;;;;;;;;4971389;28;19960;-73
2022/03/31 01:34:56;;;;;;;;;;;;;;;;;;4969565;28;19921;-73
2022/03/31 01:37:23;;;;;;;;;;;;;;;;;;4970145;28;19951;-73
2022/03/31 01:39:49;;;;;;;;;;;;;;;;;;4969386;28;20698;-73
2022/03/31 01:42:15;;;;;;;;;;;;;;;;;;4969599;28;20663;-73
2022/03/31 01:44:41;;;;;;;;;;;;;;;;;;4972074;28;19928;-73
2022/03/31 01:47:07;;;;;;;;;;;;;;;;;;4973055;28;19917;-73
2022/03/31 01:49:33;;;;;;;;;;;;;;;;;;4974176;28;20363;-73
2022/03/31 01:51:59;;;;;;;;;;;;;;;;;;4969328;28;19921;-73
2022/03/31 01:54:44;;;;;;;;;;;;;;;;;;4971630;28;20035;-73
2022/03/31 02:16:36;;;;;;;;;;;;;;;;;;5006299;28;20066;-73
2022/03/31 02:19:02;;;;;;;;;;;;;;;;;;5014558;28;19917;-73
2022/03/31 02:21:28;;;;;;;;;;;;;;;;;;5016354;28;19921;-73
2022/03/31 02:23:54;;;;;;;;;;;;;;;;;;5015370;28;20000;-73
2022/03/31 02:26:20;;;;;;;;;;;;;;;;;;5016724;28;19917;-73
2022/03/31 02:28:46;;;;;;;;;;;;;;;;;;5017234;28;19931;-73
2022/03/31 02:31:13;;;;;;;;;;;;;;;;;;5016301;28;20298;-73
2022/03/31 02:33:39;;;;;;;;;;;;;;;;;;5020513;28;19975;-73
2022/03/31 02:36:07;;;;;;;;;;;;;;;;;;5001431;28;20484;-72
2022/03/31 02:38:34;;;;;;;;;;;;;;;;;;5022193;28;19923;-73
2022/03/31 02:41:00;;;;;;;;;;;;;;;;;;5012088;28;19917;-73
2022/03/31 02:43:26;;;;;;;;;;;;;;;;;;5021973;28;19932;-73
2022/03/31 02:45:52;;;;;;;;;;;;;;;;;;5017215;28;20845;-73
2022/03/31 02:48:18;;;;;;;;;;;;;;;;;;5018706;28;19921;-73
2022/03/31 02:50:43;;;;;;;;;;;;;;;;;;5022262;28;20391;-73
2022/03/31 02:55:55;;;;;;;;;;;;;;;;;;5016549;28;19924;-73
2022/03/31 02:58:21;;;;;;;;;;;;;;;;;;5022135;28;19921;-73
2022/03/31 03:00:48;;;;;;;;;;;;;;;;;;5011910;28;19931;-73
2022/03/31 03:03:14;;;;;;;;;;;;;;;;;;5019376;28;19917;-72
2022/03/31 03:05:45;;;;;;;;;;;;;;;;;;5023809;28;19970;-73
2022/03/31 03:08:12;;;;;;;;;;;;;;;;;;5006967;28;20347;-73
2022/03/31 03:10:38;;;;;;;;;;;;;;;;;;5021195;28;20351;-73
2022/03/31 03:13:04;;;;;;;;;;;;;;;;;;5005501;28;20195;-73
2022/03/31 03:15:30;;;;;;;;;;;;;;;;;;5024604;28;19996;-73
2022/03/31 03:17:57;;;;;;;;;;;;;;;;;;5028111;28;19924;-73
2022/03/31 03:20:24;;;;;;;;;;;;;;;;;;5023979;28;19921;-73
2022/03/31 03:22:50;;;;;;;;;;;;;;;;;;5024817;28;19923;-73
2022/03/31 03:25:17;;;;;;;;;;;;;;;;;;5020008;28;20279;-73
2022/03/31 03:27:43;;;;;;;;;;;;;;;;;;5028653;28;20002;-73
2022/03/31 03:30:09;;;;;;;;;;;;;;;;;;5018151;28;19921;-73
2022/03/31 03:32:38;;;;;;;;;;;;;;;;;;5021419;28;19923;-73
2022/03/31 03:35:04;;;;;;;;;;;;;;;;;;5004091;28;20736;-73
2022/03/31 03:37:30;;;;;;;;;;;;;;;;;;5027486;28;20531;-73
2022/03/31 03:39:56;;;;;;;;;;;;;;;;;;5016474;28;19928;-72
2022/03/31 03:42:22;;;;;;;;;;;;;;;;;;5021133;28;19921;-73
2022/03/31 03:44:48;;;;;;;;;;;;;;;;;;5007130;28;19917;-73
2022/03/31 03:47:14;;;;;;;;;;;;;;;;;;5019880;28;19924;-73
2022/03/31 03:49:41;;;;;;;;;;;;;;;;;;5022904;28;20363;-73
2022/03/31 03:52:07;;;;;;;;;;;;;;;;;;5016972;28;19928;-73
2022/03/31 03:54:33;;;;;;;;;;;;;;;;;;5009708;28;19916;-73
2022/03/31 03:56:59;;;;;;;;;;;;;;;;;;5015957;28;20391;-73
2022/03/31 03:59:25;;;;;;;;;;;;;;;;;;5025870;28;20463;-73
2022/03/31 04:01:51;;;;;;;;;;;;;;;;;;5004680;28;19924;-73
2022/03/31 04:04:17;;;;;;;;;;;;;;;;;;5004309;28;19962;-73
2022/03/31 04:06:43;;;;;;;;;;;;;;;;;;5023176;28;19999;-73
2022/03/31 04:09:09;;;;;;;;;;;;;;;;;;5016827;28;19924;-73
2022/03/31 04:11:35;;;;;;;;;;;;;;;;;;5006278;28;19917;-73
2022/03/31 04:14:01;;;;;;;;;;;;;;;;;;5021503;28;20429;-73
2022/03/31 04:16:27;;;;;;;;;;;;;;;;;;5026410;28;19967;-73
2022/03/31 04:18:53;;;;;;;;;;;;;;;;;;5021658;28;19917;-73
2022/03/31 04:21:19;;;;;;;;;;;;;;;;;;5000214;28;20335;-73
2022/03/31 04:23:45;;;;;;;;;;;;;;;;;;5017461;28;19920;-73
2022/03/31 04:26:11;;;;;;;;;;;;;;;;;;5005613;28;19928;-73
2022/03/31 04:28:37;;;;;;;;;;;;;;;;;;5011326;28;19927;-73
2022/03/31 04:31:03;;;;;;;;;;;;;;;;;;5022203;28;19945;-73
2022/03/31 04:33:29;;;;;;;;;;;;;;;;;;5019776;28;19940;-73
2022/03/31 04:35:55;;;;;;;;;;;;;;;;;;5025052;28;19967;-73
2022/03/31 04:38:21;;;;;;;;;;;;;;;;;;5017099;28;19928;-72
2022/03/31 04:40:47;;;;;;;;;;;;;;;;;;5014536;28;19916;-72
2022/03/31 04:43:13;;;;;;;;;;;;;;;;;;5009763;28;21556;-72
2022/03/31 04:45:39;;;;;;;;;;;;;;;;;;5020364;28;19923;-72
2022/03/31 04:48:05;;;;;;;;;;;;;;;;;;5011165;28;19920;-72
2022/03/31 04:50:31;;;;;;;;;;;;;;;;;;5013548;28;19925;-72
2022/03/31 04:52:57;;;;;;;;;;;;;;;;;;5011622;28;19953;-72
2022/03/31 04:55:25;;;;;;;;;;;;;;;;;;5019031;28;19917;-72
2022/03/31 04:57:51;;;;;;;;;;;;;;;;;;5014944;28;19917;-72
2022/03/31 05:00:17;;;;;;;;;;;;;;;;;;5014233;28;19952;-72
2022/03/31 05:02:43;;;;;;;;;;;;;;;;;;5016850;28;20015;-72
2022/03/31 05:05:09;;;;;;;;;;;;;;;;;;5017174;28;19916;-72
2022/03/31 05:07:35;;;;;;;;;;;;;;;;;;5018180;28;20020;-73
2022/03/31 05:10:01;;;;;;;;;;;;;;;;;;5013778;28;19943;-73
2022/03/31 05:12:27;;;;;;;;;;;;;;;;;;5025479;28;20271;-73
2022/03/31 05:14:53;;;;;;;;;;;;;;;;;;5023018;28;19923;-73
2022/03/31 05:17:19;;;;;;;;;;;;;;;;;;5025241;28;19925;-72
2022/03/31 05:19:45;;;;;;;;;;;;;;;;;;5015977;28;20394;-72
2022/03/31 05:22:11;;;;;;;;;;;;;;;;;;5018321;28;20316;-72
2022/03/31 05:24:37;;;;;;;;;;;;;;;;;;5018466;28;19929;-73
2022/03/31 05:27:03;;;;;;;;;;;;;;;;;;5002488;28;20311;-72
2022/03/31 05:29:29;;;;;;;;;;;;;;;;;;5019327;28;19954;-73
2022/03/31 05:31:57;;;;;;;;;;;;;;;;;;4997606;28;20433;-72
2022/03/31 05:34:23;;;;;;;;;;;;;;;;;;5028469;28;19916;-72
2022/03/31 05:36:49;;;;;;;;;;;;;;;;;;5027373;28;19966;-72
2022/03/31 05:39:16;;;;;;;;;;;;;;;;;;5015349;28;19917;-72
2022/03/31 05:41:41;;;;;;;;;;;;;;;;;;5008621;28;20109;-73
2022/03/31 05:44:07;;;;;;;;;;;;;;;;;;5003060;28;19917;-72
2022/03/31 05:46:33;;;;;;;;;;;;;;;;;;5023626;28;20340;-72
2022/03/31 05:48:59;;;;;;;;;;;;;;;;;;5001502;28;19959;-73
2022/03/31 05:51:25;;;;;;;;;;;;;;;;;;5021040;28;19928;-73
2022/03/31 05:53:51;;;;;;;;;;;;;;;;;;5024752;28;19917;-73
2022/03/31 05:56:17;;;;;;;;;;;;;;;;;;5015351;28;20306;-72
2022/03/31 05:58:43;;;;;;;;;;;;;;;;;;5020086;28;20228;-73
2022/03/31 06:01:09;;;;;;;;;;;;;;;;;;5020409;28;20347;-72
2022/03/31 06:03:35;;;;;;;;;;;;;;;;;;5021784;28;19971;-72
2022/03/31 06:06:01;;;;;;;;;;;;;;;;;;5017187;28;19948;-71
2022/03/31 06:08:27;;;;;;;;;;;;;;;;;;5013583;28;19928;-72
2022/03/31 06:10:53;;;;;;;;;;;;;;;;;;5020938;28;20512;-71
2022/03/31 06:13:19;;;;;;;;;;;;;;;;;;5025878;28;19916;-72
2022/03/31 06:15:45;;;;;;;;;;;;;;;;;;5020030;28;19920;-72
2022/03/31 06:18:12;;;;;;;;;;;;;;;;;;5016717;28;19925;-71
2022/03/31 06:20:38;;;;;;;;;;;;;;;;;;5018587;28;19928;-73
2022/03/31 06:23:04;;;;;;;;;;;;;;;;;;5012039;28;19917;-73
2022/03/31 06:25:30;;;;;;;;;;;;;;;;;;5020034;28;20312;-72
2022/03/31 06:27:56;;;;;;;;;;;;;;;;;;5014771;28;20040;-72
2022/03/31 06:30:22;;;;;;;;;;;;;;;;;;5021154;28;19917;-72
2022/03/31 06:32:48;;;;;;;;;;;;;;;;;;5027609;28;19923;-72
2022/03/31 06:35:15;;;;;;;;;;;;;;;;;;5007839;28;19917;-73
2022/03/31 06:37:41;;;;;;;;;;;;;;;;;;5011969;28;19990;-73
2022/03/31 06:40:07;;;;;;;;;;;;;;;;;;5006848;28;19921;-72
2022/03/31 06:42:33;;;;;;;;;;;;;;;;;;5025548;28;20384;-73
2022/03/31 06:44:59;;;;;;;;;;;;;;;;;;5019368;28;19924;-72
2022/03/31 06:47:25;;;;;;;;;;;;;;;;;;5027043;28;20267;-74
2022/03/31 06:49:51;;;;;;;;;;;;;;;;;;5024411;28;20559;-72
2022/03/31 06:52:17;;;;;;;;;;;;;;;;;;5026280;28;19925;-72
2022/03/31 06:54:43;;;;;;;;;;;;;;;;;;5021282;28;19917;-73
2022/03/31 06:57:09;;;;;;;;;;;;;;;;;;5020065;28;19967;-73
2022/03/31 06:59:35;;;;;;;;;;;;;;;;;;5006937;28;19917;-73
2022/03/31 07:02:01;;;;;;;;;;;;;;;;;;5020005;28;20444;-74
2022/03/31 07:04:27;;;;;;;;;;;;;;;;;;5033653;28;19936;-73
2022/03/31 07:06:53;;;;;;;;;;;;;;;;;;5011502;28;19923;-73
2022/03/31 07:09:19;;;;;;;;;;;;;;;;;;5027872;28;19973;-73
2022/03/31 07:11:45;;;;;;;;;;;;;;;;;;5018432;28;19982;-72
2022/03/31 07:14:11;;;;;;;;;;;;;;;;;;5021763;28;19921;-74
2022/03/31 07:16:37;;;;;;;;;;;;;;;;;;5021898;28;19925;-74
2022/03/31 07:19:03;;;;;;;;;;;;;;;;;;5017509;28;19924;-73
2022/03/31 07:21:29;;;;;;;;;;;;;;;;;;5007455;28;20493;-73
2022/03/31 07:23:55;;;;;;;;;;;;;;;;;;5000698;28;19917;-73
2022/03/31 07:26:22;;;;;;;;;;;;;;;;;;5024745;28;19932;-73
2022/03/31 07:28:49;;;;;;;;;;;;;;;;;;5007824;28;19921;-73
2022/03/31 07:31:15;;;;;;;;;;;;;;;;;;5025667;28;19917;-72
2022/03/31 07:33:40;;;;;;;;;;;;;;;;;;5020210;28;19936;-73
2022/03/31 07:36:07;;;;;;;;;;;;;;;;;;5019614;28;20440;-74
2022/03/31 07:38:33;;;;;;;;;;;;;;;;;;5035816;28;19928;-73
2022/03/31 07:40:59;;;;;;;;;;;;;;;;;;5011926;28;19921;-73
2022/03/31 07:43:27;;;;;;;;;;;;;;;;;;5009226;28;20019;-72
2022/03/31 07:45:53;;;;;;;;;;;;;;;;;;5018660;28;19964;-73
2022/03/31 07:48:19;;;;;;;;;;;;;;;;;;5023052;28;20485;-73
2022/03/31 07:50:45;;;;;;;;;;;;;;;;;;5011273;28;20019;-73
2022/03/31 07:53:11;;;;;;;;;;;;;;;;;;5015995;28;20042;-73
2022/03/31 07:55:37;;;;;;;;;;;;;;;;;;5020308;28;19952;-73
2022/03/31 07:58:03;;;;;;;;;;;;;;;;;;5015479;28;20012;-73
2022/03/31 08:00:29;;;;;;;;;;;;;;;;;;5017796;28;19917;-73
2022/03/31 08:02:56;;;;;;;;;;;;;;;;;;4997903;28;19920;-74
2022/03/31 08:05:21;;;;;;;;;;;;;;;;;;5022408;28;19917;-73
2022/03/31 08:07:48;;;;;;;;;;;;;;;;;;5024085;28;19944;-73
2022/03/31 08:10:14;;;;;;;;;;;;;;;;;;5015346;28;19963;-74
2022/03/31 08:12:40;;;;;;;;;;;;;;;;;;5003173;28;20721;-73
2022/03/31 08:15:06;;;;;;;;;;;;;;;;;;5014386;28;20520;-74
2022/03/31 08:17:32;;;;;;;;;;;;;;;;;;5023450;28;19929;-73
2022/03/31 08:19:59;;;;;;;;;;;;;;;;;;4997016;28;20415;-73
2022/03/31 08:22:26;;;;;;;;;;;;;;;;;;5017345;28;19917;-73
2022/03/31 08:24:52;;;;;;;;;;;;;;;;;;5003658;28;19987;-73
2022/03/31 08:27:18;;;;;;;;;;;;;;;;;;5003993;28;19920;-73
2022/03/31 08:29:45;;;;;;;;;;;;;;;;;;5025998;28;19924;-73
2022/03/31 08:32:12;;;;;;;;;;;;;;;;;;5000896;28;20306;-73
2022/03/31 08:34:38;;;;;;;;;;;;;;;;;;5013449;28;19920;-73
2022/03/31 08:37:04;;;;;;;;;;;;;;;;;;5026281;28;19923;-74
2022/03/31 08:39:30;;;;;;;;;;;;;;;;;;5028360;28;19916;-74
2022/03/31 08:41:56;;;;;;;;;;;;;;;;;;5021228;28;19928;-73
2022/03/31 08:44:22;;;;;;;;;;;;;;;;;;5009448;28;19959;-73
2022/03/31 08:46:48;;;;;;;;;;;;;;;;;;5012454;28;20424;-73
2022/03/31 08:49:14;;;;;;;;;;;;;;;;;;5015216;28;19925;-71
2022/03/31 08:51:40;;;;;;;;;;;;;;;;;;5019288;28;19920;-71
2022/03/31 08:54:08;;;;;;;;;;;;;;;;;;5009526;28;19921;-70
2022/03/31 08:56:34;;;;;;;;;;;;;;;;;;5000881;28;19917;-70
2022/03/31 08:59:00;;;;;;;;;;;;;;;;;;5013442;28;19917;-69
2022/03/31 09:01:26;;;;;;;;;;;;;;;;;;5022603;28;20221;-70
2022/03/31 09:03:52;;;;;;;;;;;;;;;;;;5015811;28;19924;-70
2022/03/31 09:06:18;;;;;;;;;;;;;;;;;;5016724;28;19917;-70
2022/03/31 09:08:44;;;;;;;;;;;;;;;;;;5018518;28;20412;-70
2022/03/31 09:11:10;;;;;;;;;;;;;;;;;;5013612;28;19917;-70
2022/03/31 09:13:37;;;;;;;;;;;;;;;;;;5017976;28;20290;-73
2022/03/31 09:16:03;;;;;;;;;;;;;;;;;;5012980;28;20077;-72
2022/03/31 09:18:29;;;;;;;;;;;;;;;;;;5027611;28;19920;-71
2022/03/31 09:20:56;;;;;;;;;;;;;;;;;;5011564;28;19966;-71
2022/03/31 09:23:22;;;;;;;;;;;;;;;;;;5004124;28;19943;-72
2022/03/31 09:25:50;;;;;;;;;;;;;;;;;;5008871;28;20595;-70
2022/03/31 09:28:16;;;;;;;;;;;;;;;;;;5001238;28;19920;-70
2022/03/31 09:30:42;;;;;;;;;;;;;;;;;;5018694;28;19917;-73
2022/03/31 09:33:08;;;;;;;;;;;;;;;;;;5013638;28;19923;-72
2022/03/31 09:35:34;;;;;;;;;;;;;;;;;;5017930;28;20436;-73
2022/03/31 09:38:00;;;;;;;;;;;;;;;;;;5020307;28;20225;-72
2022/03/31 09:40:26;;;;;;;;;;;;;;;;;;5023110;28;19923;-72
2022/03/31 09:42:52;;;;;;;;;;;;;;;;;;4999609;28;19987;-72
2022/03/31 09:45:18;;;;;;;;;;;;;;;;;;5017100;28;19923;-72
2022/03/31 09:47:45;;;;;;;;;;;;;;;;;;5016830;28;19998;-72
2022/03/31 09:50:12;;;;;;;;;;;;;;;;;;5013129;28;19921;-72
2022/03/31 09:52:38;;;;;;;;;;;;;;;;;;5015828;28;20409;-72
2022/03/31 09:55:04;;;;;;;;;;;;;;;;;;5015758;28;19921;-73
2022/03/31 09:57:30;;;;;;;;;;;;;;;;;;5016823;28;19924;-72
2022/03/31 09:59:56;;;;;;;;;;;;;;;;;;5013366;28;20396;-72
2022/03/31 10:02:22;;;;;;;;;;;;;;;;;;5019219;28;20364;-72
2022/03/31 10:04:48;;;;;;;;;;;;;;;;;;5002069;28;19925;-72
2022/03/31 10:07:14;;;;;;;;;;;;;;;;;;5012942;28;20011;-71
2022/03/31 10:09:40;;;;;;;;;;;;;;;;;;5016107;28;19963;-71
2022/03/31 10:12:06;;;;;;;;;;;;;;;;;;5010630;28;19920;-71
2022/03/31 10:14:32;;;;;;;;;;;;;;;;;;5020028;28;20236;-72
2022/03/31 10:16:58;;;;;;;;;;;;;;;;;;5013263;28;19924;-73
2022/03/31 10:19:24;;;;;;;;;;;;;;;;;;5013937;28;20280;-72
2022/03/31 10:21:50;;;;;;;;;;;;;;;;;;5016172;28;20047;-71
2022/03/31 10:27:01;;;;;;;;;;;;;;;;;;5010371;28;20580;-71
2022/03/31 10:29:28;;;;;;;;;;;;;;;;;;5006127;28;20285;-71
2022/03/31 10:31:54;;;;;;;;;;;;;;;;;;5012675;28;19964;-72
2022/03/31 10:34:20;;;;;;;;;;;;;;;;;;5021255;28;20248;-71
2022/03/31 10:36:47;;;;;;;;;;;;;;;;;;5020496;28;19927;-72
2022/03/31 10:39:13;;;;;;;;;;;;;;;;;;5011136;28;22227;-73
2022/03/31 10:41:39;;;;;;;;;;;;;;;;;;5011212;28;20282;-72
2022/03/31 10:44:05;;;;;;;;;;;;;;;;;;5012776;28;19928;-74
2022/03/31 10:46:32;;;;;;;;;;;;;;;;;;5020676;28;20299;-71
2022/03/31 10:48:58;;;;;;;;;;;;;;;;;;5017009;28;19924;-74
2022/03/31 10:51:24;;;;;;;;;;;;;;;;;;5025620;28;20433;-73
2022/03/31 10:53:50;;;;;;;;;;;;;;;;;;5018871;28;19994;-72
2022/03/31 10:56:18;;;;;;;;;;;;;;;;;;5018440;28;20020;-73
2022/03/31 10:58:44;;;;;;;;;;;;;;;;;;4997408;28;20287;-73
2022/03/31 11:01:10;;;;;;;;;;;;;;;;;;4999810;28;19917;-73
2022/03/31 11:03:36;;;;;;;;;;;;;;;;;;5014644;28;20012;-73
2022/03/31 11:06:02;;;;;;;;;;;;;;;;;;5000845;28;19924;-71
2022/03/31 11:08:29;;;;;;;;;;;;;;;;;;5003734;28;20272;-71
2022/03/31 11:10:55;;;;;;;;;;;;;;;;;;5002457;28;19917;-73
2022/03/31 11:13:21;;;;;;;;;;;;;;;;;;5005702;28;19917;-72
2022/03/31 11:15:47;;;;;;;;;;;;;;;;;;5003999;28;19921;-72
2022/03/31 11:18:13;;;;;;;;;;;;;;;;;;5006650;28;20032;-71
2022/03/31 11:20:39;;;;;;;;;;;;;;;;;;5011234;28;20252;-71
2022/03/31 11:23:08;;;;;;;;;;;;;;;;;;5009548;28;20214;-72
2022/03/31 11:25:34;;;;;;;;;;;;;;;;;;5008523;28;20393;-72
2022/03/31 11:28:00;;;;;;;;;;;;;;;;;;5004179;28;19921;-72
2022/03/31 11:30:26;;;;;;;;;;;;;;;;;;5012179;28;20016;-72
2022/03/31 11:32:52;;;;;;;;;;;;;;;;;;5007783;28;20004;-72
2022/03/31 11:35:18;;;;;;;;;;;;;;;;;;5003872;28;19939;-72
2022/03/31 11:37:44;;;;;;;;;;;;;;;;;;4991119;28;19949;-72
2022/03/31 11:40:10;;;;;;;;;;;;;;;;;;5001909;28;20161;-72
2022/03/31 11:42:36;;;;;;;;;;;;;;;;;;5009231;28;20345;-72
2022/03/31 11:45:02;;;;;;;;;;;;;;;;;;4993469;28;19917;-72
2022/03/31 11:47:30;;;;;;;;;;;;;;;;;;5013531;28;19924;-71
2022/03/31 11:49:56;;;;;;;;;;;;;;;;;;4993338;28;20229;-72
2022/03/31 11:52:22;;;;;;;;;;;;;;;;;;5005300;28;19917;-71
2022/03/31 11:54:48;;;;;;;;;;;;;;;;;;5013750;28;20603;-71
2022/03/31 11:57:15;;;;;;;;;;;;;;;;;;5004757;28;19921;-74
2022/03/31 11:59:41;;;;;;;;;;;;;;;;;;5005163;28;19916;-71
2022/03/31 12:02:07;;;;;;;;;;;;;;;;;;5001871;28;20000;-71
2022/03/31 12:04:33;;;;;;;;;;;;;;;;;;5010594;28;19952;-71
2022/03/31 12:06:59;;;;;;;;;;;;;;;;;;5004148;28;20445;-71
2022/03/31 12:09:29;;;;;;;;;;;;;;;;;;5000029;28;20276;-71
2022/03/31 12:11:54;;;;;;;;;;;;;;;;;;5006230;28;20681;-72
2022/03/31 12:14:21;;;;;;;;;;;;;;;;;;5009124;28;19974;-71
2022/03/31 12:16:47;;;;;;;;;;;;;;;;;;5007554;28;20371;-73
2022/03/31 12:19:13;;;;;;;;;;;;;;;;;;5009284;28;20181;-73
2022/03/31 12:21:39;;;;;;;;;;;;;;;;;;5012097;28;20394;-73
2022/03/31 12:24:09;;;;;;;;;;;;;;;;;;5014403;28;19947;-73
2022/03/31 12:26:35;;;;;;;;;;;;;;;;;;5014749;28;20668;-73
2022/03/31 12:29:02;;;;;;;;;;;;;;;;;;5014731;28;20183;-73
2022/03/31 12:31:29;;;;;;;;;;;;;;;;;;5017050;28;19917;-72
2022/03/31 12:33:56;;;;;;;;;;;;;;;;;;5013698;28;19917;-72
2022/03/31 12:36:22;;;;;;;;;;;;;;;;;;5007482;28;19923;-72
2022/03/31 12:38:49;;;;;;;;;;;;;;;;;;5013126;28;20495;-72
2022/03/31 12:41:15;;;;;;;;;;;;;;;;;;5015749;28;20395;-72
2022/03/31 12:43:41;;;;;;;;;;;;;;;;;;5025686;28;20340;-71
2022/03/31 12:46:07;;;;;;;;;;;;;;;;;;5023441;28;20035;-71
2022/03/31 12:48:33;;;;;;;;;;;;;;;;;;5024051;28;19927;-71
2022/03/31 12:50:59;;;;;;;;;;;;;;;;;;5018561;28;19921;-74
2022/03/31 12:53:26;;;;;;;;;;;;;;;;;;5023397;28;20363;-73
2022/03/31 12:55:52;;;;;;;;;;;;;;;;;;5004841;28;19917;-72
2022/03/31 12:58:18;;;;;;;;;;;;;;;;;;5004015;28;20022;-72
2022/03/31 13:00:43;;;;;;;;;;;;;;;;;;5022870;28;20273;-73
2022/03/31 13:03:09;;;;;;;;;;;;;;;;;;5018795;28;19916;-72
2022/03/31 13:05:35;;;;;;;;;;;;;;;;;;5029352;28;20015;-72
2022/03/31 13:08:01;;;;;;;;;;;;;;;;;;5006027;28;20199;-72
2022/03/31 13:10:28;;;;;;;;;;;;;;;;;;5023608;28;19924;-73
2022/03/31 13:12:54;;;;;;;;;;;;;;;;;;5011581;28;20307;-72
2022/03/31 13:15:21;;;;;;;;;;;;;;;;;;5026520;28;20196;-72
2022/03/31 13:17:47;;;;;;;;;;;;;;;;;;5022769;28;20383;-73
2022/03/31 13:20:13;;;;;;;;;;;;;;;;;;5021069;28;19952;-73
2022/03/31 13:22:40;;;;;;;;;;;;;;;;;;5004974;28;20271;-72
2022/03/31 13:25:06;;;;;;;;;;;;;;;;;;5019985;28;19917;-72
2022/03/31 13:27:33;;;;;;;;;;;;;;;;;;5026007;28;19924;-72
2022/03/31 13:29:59;;;;;;;;;;;;;;;;;;5001744;28;19917;-71
2022/03/31 13:32:25;;;;;;;;;;;;;;;;;;5022019;28;19998;-72
2022/03/31 13:34:51;;;;;;;;;;;;;;;;;;5006952;28;20271;-71
2022/03/31 13:37:17;;;;;;;;;;;;;;;;;;5024851;28;19924;-71
2022/03/31 13:39:43;;;;;;;;;;;;;;;;;;5021868;28;19916;-73
2022/03/31 13:42:09;;;;;;;;;;;;;;;;;;5016949;28;20278;-72
2022/03/31 13:44:35;;;;;;;;;;;;;;;;;;5025122;28;19916;-72
2022/03/31 13:47:01;;;;;;;;;;;;;;;;;;5017214;28;20378;-72
2022/03/31 13:49:27;;;;;;;;;;;;;;;;;;5027145;28;19925;-72
2022/03/31 13:51:53;;;;;;;;;;;;;;;;;;5008079;28;20255;-72
2022/03/31 13:54:19;;;;;;;;;;;;;;;;;;5019434;28;19917;-71
2022/03/31 13:56:45;;;;;;;;;;;;;;;;;;5025665;28;19928;-72
2022/03/31 14:01:56;;;;;;;;;;;;;;;;;;5022194;28;20338;-71
2022/03/31 14:04:22;;;;;;;;;;;;;;;;;;5024391;28;19917;-72
2022/03/31 14:06:51;;;;;;;;;;;;;;;;;;5003335;28;19927;-72
2022/03/31 14:09:17;;;;;;;;;;;;;;;;;;5020150;28;19920;-72
2022/03/31 14:11:43;;;;;;;;;;;;;;;;;;5006867;28;19964;-72
2022/03/31 14:14:14;;;;;;;;;;;;;;;;;;5020383;28;20009;-72
2022/03/31 14:16:44;;;;;;;;;;;;;;;;;;5022767;28;20397;-72
2022/03/31 14:19:11;;;;;;;;;;;;;;;;;;5022424;28;19917;-72
2022/03/31 14:21:38;;;;;;;;;;;;;;;;;;5022639;28;20161;-73
2022/03/31 14:24:04;;;;;;;;;;;;;;;;;;5003622;28;20370;-72
2022/03/31 14:26:30;;;;;;;;;;;;;;;;;;5021276;28;19998;-72
2022/03/31 14:28:56;;;;;;;;;;;;;;;;;;5024744;28;19925;-71
2022/03/31 14:31:23;;;;;;;;;;;;;;;;;;5023627;28;19924;-72
2022/03/31 14:33:49;;;;;;;;;;;;;;;;;;5022010;28;19924;-72
2022/03/31 14:36:15;;;;;;;;;;;;;;;;;;5002232;28;19921;-72
2022/03/31 14:38:41;;;;;;;;;;;;;;;;;;5005296;28;19927;-72
2022/03/31 14:41:11;;;;;;;;;;;;;;;;;;5018603;28;20283;-71
2022/03/31 14:43:38;;;;;;;;;;;;;;;;;;5009322;28;19927;-72
2022/03/31 14:46:04;;;;;;;;;;;;;;;;;;5021541;28;19920;-71
2022/03/31 14:48:30;;;;;;;;;;;;;;;;;;5023583;28;19964;-71
2022/03/31 14:50:56;;;;;;;;;;;;;;;;;;5018929;28;19921;-72
2022/03/31 14:53:22;;;;;;;;;;;;;;;;;;5023462;28;19943;-72
2022/03/31 14:55:48;;;;;;;;;;;;;;;;;;5029153;28;19959;-73
2022/03/31 14:58:14;;;;;;;;;;;;;;;;;;5024860;28;20068;-71
2022/03/31 15:00:40;;;;;;;;;;;;;;;;;;5030834;28;19924;-72
2022/03/31 15:03:06;;;;;;;;;;;;;;;;;;5022782;28;20051;-71
2022/03/31 15:05:32;;;;;;;;;;;;;;;;;;5028855;28;20558;-71
2022/03/31 15:07:58;;;;;;;;;;;;;;;;;;5021712;28;19924;-73
2022/03/31 15:15:56;;;;;;;;;;;;;;;;;;5022959;28;19923;-73
2022/03/31 15:18:22;;;;;;;;;;;;;;;;;;5023764;28;19925;-74
2022/03/31 15:20:49;;;;;;;;;;;;;;;;;;5030711;28;19948;-72
2022/03/31 15:23:14;;;;;;;;;;;;;;;;;;5009116;28;20046;-73
2022/03/31 15:25:40;;;;;;;;;;;;;;;;;;5030438;28;20143;-75
2022/03/31 15:28:06;;;;;;;;;;;;;;;;;;5021285;28;19928;-74
2022/03/31 15:30:32;;;;;;;;;;;;;;;;;;5027357;28;19917;-73
2022/03/31 15:32:58;;;;;;;;;;;;;;;;;;5022625;28;19975;-72
2022/03/31 15:35:24;;;;;;;;;;;;;;;;;;5028711;28;19924;-72
2022/03/31 15:37:50;;;;;;;;;;;;;;;;;;5024436;28;19916;-72
2022/03/31 15:40:16;;;;;;;;;;;;;;;;;;5016772;28;19917;-72
2022/03/31 15:42:42;;;;;;;;;;;;;;;;;;5027668;28;20000;-72
2022/03/31 15:45:08;;;;;;;;;;;;;;;;;;5015004;28;19917;-74
2022/03/31 15:47:34;;;;;;;;;;;;;;;;;;5030603;28;19920;-72
2022/03/31 15:50:00;;;;;;;;;;;;;;;;;;5021221;28;19989;-72
2022/03/31 15:52:26;;;;;;;;;;;;;;;;;;5016933;28;19924;-72
2022/03/31 15:54:52;;;;;;;;;;;;;;;;;;5018974;28;19924;-75
2022/03/31 15:57:18;;;;;;;;;;;;;;;;;;5017036;28;19971;-72
2022/03/31 15:59:44;;;;;;;;;;;;;;;;;;5011861;28;20272;-73
2022/03/31 16:02:10;;;;;;;;;;;;;;;;;;5004987;28;20380;-73
2022/03/31 16:04:36;;;;;;;;;;;;;;;;;;5015383;28;19917;-73
2022/03/31 16:07:02;;;;;;;;;;;;;;;;;;5006842;28;19960;-73
2022/03/31 16:09:28;;;;;;;;;;;;;;;;;;5010659;28;19925;-71
2022/03/31 16:11:54;;;;;;;;;;;;;;;;;;5004233;28;20260;-72
2022/03/31 16:14:20;;;;;;;;;;;;;;;;;;5010417;28;19921;-72
2022/03/31 16:16:46;;;;;;;;;;;;;;;;;;5010942;28;19932;-72
2022/03/31 16:19:14;;;;;;;;;;;;;;;;;;5011308;28;20474;-69
2022/03/31 16:21:40;;;;;;;;;;;;;;;;;;5009934;28;19917;-68
2022/03/31 16:24:06;;;;;;;;;;;;;;;;;;5008535;28;19921;-68
2022/03/31 16:26:32;;;;;;;;;;;;;;;;;;4999222;28;20558;-68
2022/03/31 16:28:58;;;;;;;;;;;;;;;;;;5007534;28;20290;-68
2022/03/31 16:31:24;;;;;;;;;;;;;;;;;;5008354;28;19921;-67
2022/03/31 16:33:50;;;;;;;;;;;;;;;;;;5012366;28;20031;-69
2022/03/31 16:36:16;;;;;;;;;;;;;;;;;;5008942;28;19925;-69
2022/03/31 16:38:41;;;;;;;;;;;;;;;;;;5012152;28;19917;-68
2022/03/31 16:41:07;;;;;;;;;;;;;;;;;;5007497;28;20422;-68
2022/03/31 16:43:33;;;;;;;;;;;;;;;;;;5010250;28;19918;-68
2022/03/31 16:46:00;;;;;;;;;;;;;;;;;;5009337;28;20004;-68
2022/03/31 16:48:26;;;;;;;;;;;;;;;;;;5009997;28;19933;-70
2022/03/31 16:50:52;;;;;;;;;;;;;;;;;;5016538;28;20047;-70
2022/03/31 16:53:18;;;;;;;;;;;;;;;;;;5016781;28;19917;-69
2022/03/31 16:55:45;;;;;;;;;;;;;;;;;;5018461;28;19964;-70
2022/03/31 16:58:10;;;;;;;;;;;;;;;;;;5009838;28;19920;-69
2022/03/31 17:00:36;;;;;;;;;;;;;;;;;;5012517;28;19943;-70
2022/03/31 17:03:04;;;;;;;;;;;;;;;;;;5010883;28;19948;-70
2022/03/31 17:05:30;;;;;;;;;;;;;;;;;;5012427;28;19960;-68
2022/03/31 17:07:56;;;;;;;;;;;;;;;;;;4998957;28;19921;-64
2022/03/31 17:10:23;;;;;;;;;;;;;;;;;;5011599;28;19925;-66
2022/03/31 17:12:49;;;;;;;;;;;;;;;;;;5009943;28;19968;-66
2022/03/31 17:15:16;;;;;;;;;;;;;;;;;;5004961;28;21478;-68
2022/03/31 17:17:42;;;;;;;;;;;;;;;;;;5012442;28;20851;-70